sensor_id;sensor_type;location;lat;lon;timestamp;pressure;altitude;pressure_sealevel;temperature;humidity
17060;BME280;8646;49.716;9.266;2022-09-09T00:03:00;99845.63;;;15.33;94.77
17060;BME280;8646;49.716;9.266;2022-09-09T00:06:09;99852.94;;;15.33;94.86
17060;BME280;8646;49.716;9.266;2022-09-09T00:09:19;99858.28;;;15.21;95.15
17060;BME280;8646;49.716;9.266;2022-09-09T00:12:31;99844.75;;;15.20;95.11
17060;BME280;8646;49.716;9.266;2022-09-09T00:15:39;99807.09;;;15.00;95.19
17060;BME280;8646;49.716;9.266;2022-09-09T00:18:51;99829.78;;;15.13;95.08
17060;BME280;8646;49.716;9.266;2022-09-09T00:22:06;99836.38;;;15.23;95.06
17060;BME280;8646;49.716;9.266;2022-09-09T00:25:20;99818.56;;;15.17;95.01
17060;BME280;8646;49.716;9.266;2022-09-09T00:28:27;99823.59;;;15.23;95.55
17060;BME280;8646;49.716;9.266;2022-09-09T00:31:31;99838.63;;;15.16;95.43
17060;BME280;8646;49.716;9.266;2022-09-09T00:34:36;99833.50;;;15.12;95.61
17060;BME280;8646;49.716;9.266;2022-09-09T00:37:42;99832.19;;;15.05;95.43
17060;BME280;8646;49.716;9.266;2022-09-09T00:40:50;99833.25;;;15.02;95.45
17060;BME280;8646;49.716;9.266;2022-09-09T00:43:57;99831.94;;;14.95;95.75
17060;BME280;8646;49.716;9.266;2022-09-09T00:47:09;99842.38;;;14.88;95.77
17060;BME280;8646;49.716;9.266;2022-09-09T00:50:34;99843.16;;;14.91;95.72
17060;BME280;8646;49.716;9.266;2022-09-09T00:53:51;99838.25;;;14.96;96.09
17060;BME280;8646;49.716;9.266;2022-09-09T00:57:05;99845.44;;;14.97;95.63
17060;BME280;8646;49.716;9.266;2022-09-09T01:00:19;99834.00;;;14.92;95.43
17060;BME280;8646;49.716;9.266;2022-09-09T01:03:31;99834.75;;;14.94;95.25
17060;BME280;8646;49.716;9.266;2022-09-09T01:06:38;99838.44;;;14.93;95.38
17060;BME280;8646;49.716;9.266;2022-09-09T01:09:50;99810.22;;;14.81;95.12
17060;BME280;8646;49.716;9.266;2022-09-09T01:12:55;99835.19;;;15.00;95.11
17060;BME280;8646;49.716;9.266;2022-09-09T01:16:04;99826.19;;;15.00;95.08
17060;BME280;8646;49.716;9.266;2022-09-09T01:19:17;99827.91;;;15.01;94.78
17060;BME280;8646;49.716;9.266;2022-09-09T01:22:34;99834.13;;;15.03;95.12
17060;BME280;8646;49.716;9.266;2022-09-09T01:29:21;99831.09;;;15.07;95.05
17060;BME280;8646;49.716;9.266;2022-09-09T01:32:39;99823.03;;;15.18;94.72
17060;BME280;8646;49.716;9.266;2022-09-09T01:35:46;99825.22;;;15.26;94.74
17060;BME280;8646;49.716;9.266;2022-09-09T01:38:52;99828.19;;;15.23;94.37
17060;BME280;8646;49.716;9.266;2022-09-09T01:41:56;99822.19;;;15.31;94.42
17060;BME280;8646;49.716;9.266;2022-09-09T01:45:05;99832.31;;;15.28;94.32
17060;BME280;8646;49.716;9.266;2022-09-09T01:48:08;99822.50;;;15.26;94.41
17060;BME280;8646;49.716;9.266;2022-09-09T01:51:11;99830.03;;;15.22;94.54
17060;BME280;8646;49.716;9.266;2022-09-09T01:54:14;99807.78;;;15.28;94.38
17060;BME280;8646;49.716;9.266;2022-09-09T01:57:20;99811.94;;;15.34;94.39
17060;BME280;8646;49.716;9.266;2022-09-09T02:00:28;99808.22;;;15.35;94.61
17060;BME280;8646;49.716;9.266;2022-09-09T02:03:33;99813.03;;;15.32;94.59
17060;BME280;8646;49.716;9.266;2022-09-09T02:06:38;99816.06;;;15.27;95.02
17060;BME280;8646;49.716;9.266;2022-09-09T02:09:45;99820.56;;;15.28;95.42
17060;BME280;8646;49.716;9.266;2022-09-09T02:12:53;99833.63;;;15.23;95.56
17060;BME280;8646;49.716;9.266;2022-09-09T02:16:03;99832.97;;;15.19;95.70
17060;BME280;8646;49.716;9.266;2022-09-09T02:19:11;99837.19;;;15.11;95.71
17060;BME280;8646;49.716;9.266;2022-09-09T02:22:17;99837.63;;;15.05;95.62
17060;BME280;8646;49.716;9.266;2022-09-09T02:25:25;99826.72;;;15.05;96.21
17060;BME280;8646;49.716;9.266;2022-09-09T02:28:31;99836.94;;;15.01;95.95
17060;BME280;8646;49.716;9.266;2022-09-09T02:31:38;99825.50;;;14.96;96.51
17060;BME280;8646;49.716;9.266;2022-09-09T02:34:44;99829.88;;;14.99;96.66
17060;BME280;8646;49.716;9.266;2022-09-09T02:37:51;99827.34;;;14.96;96.98
17060;BME280;8646;49.716;9.266;2022-09-09T02:40:56;99814.94;;;14.92;97.23
17060;BME280;8646;49.716;9.266;2022-09-09T02:44:00;99823.09;;;14.92;97.38
17060;BME280;8646;49.716;9.266;2022-09-09T02:47:18;99828.22;;;14.83;97.54
17060;BME280;8646;49.716;9.266;2022-09-09T02:50:31;99820.03;;;14.83;97.94
17060;BME280;8646;49.716;9.266;2022-09-09T02:53:41;99811.63;;;14.86;97.90
17060;BME280;8646;49.716;9.266;2022-09-09T02:56:52;99817.97;;;14.87;98.17
17060;BME280;8646;49.716;9.266;2022-09-09T02:59:57;99808.13;;;14.84;98.44
17060;BME280;8646;49.716;9.266;2022-09-09T03:03:02;99818.06;;;14.85;98.42
17060;BME280;8646;49.716;9.266;2022-09-09T03:06:05;99818.63;;;14.91;98.72
17060;BME280;8646;49.716;9.266;2022-09-09T03:09:08;99823.09;;;14.92;98.63
17060;BME280;8646;49.716;9.266;2022-09-09T03:12:12;99825.31;;;14.99;98.06
17060;BME280;8646;49.716;9.266;2022-09-09T03:15:15;99821.22;;;14.92;98.13
17060;BME280;8646;49.716;9.266;2022-09-09T03:18:20;99815.78;;;14.92;98.48
17060;BME280;8646;49.716;9.266;2022-09-09T03:21:23;99813.94;;;14.93;98.64
17060;BME280;8646;49.716;9.266;2022-09-09T03:24:26;99813.81;;;14.81;99.06
17060;BME280;8646;49.716;9.266;2022-09-09T03:27:29;99813.56;;;14.84;99.59
17060;BME280;8646;49.716;9.266;2022-09-09T03:30:32;99819.03;;;14.84;99.55
17060;BME280;8646;49.716;9.266;2022-09-09T03:33:36;99811.63;;;14.86;99.76
17060;BME280;8646;49.716;9.266;2022-09-09T03:36:39;99811.28;;;14.78;100.00
17060;BME280;8646;49.716;9.266;2022-09-09T03:39:43;99810.31;;;14.79;100.00
17060;BME280;8646;49.716;9.266;2022-09-09T03:42:47;99798.72;;;14.76;100.00
17060;BME280;8646;49.716;9.266;2022-09-09T03:45:50;99799.59;;;14.76;100.00
17060;BME280;8646;49.716;9.266;2022-09-09T03:48:54;99801.88;;;14.70;100.00
17060;BME280;8646;49.716;9.266;2022-09-09T03:51:59;99795.78;;;14.66;100.00
17060;BME280;8646;49.716;9.266;2022-09-09T03:55:03;99801.44;;;14.63;100.00
17060;BME280;8646;49.716;9.266;2022-09-09T03:58:06;99792.50;;;14.61;100.00
17060;BME280;8646;49.716;9.266;2022-09-09T04:01:10;99793.97;;;14.52;100.00
17060;BME280;8646;49.716;9.266;2022-09-09T04:04:16;99800.38;;;14.51;100.00
17060;BME280;8646;49.716;9.266;2022-09-09T04:07:19;99801.69;;;14.46;100.00
17060;BME280;8646;49.716;9.266;2022-09-09T04:10:22;99798.41;;;14.41;100.00
17060;BME280;8646;49.716;9.266;2022-09-09T04:13:25;99799.84;;;14.32;100.00
17060;BME280;8646;49.716;9.266;2022-09-09T04:16:28;99803.97;;;14.25;100.00
17060;BME280;8646;49.716;9.266;2022-09-09T04:19:33;99797.94;;;14.20;100.00
17060;BME280;8646;49.716;9.266;2022-09-09T04:22:35;99812.81;;;14.14;100.00
17060;BME280;8646;49.716;9.266;2022-09-09T04:25:44;99813.69;;;14.15;100.00
17060;BME280;8646;49.716;9.266;2022-09-09T04:28:48;99808.34;;;14.13;100.00
17060;BME280;8646;49.716;9.266;2022-09-09T04:31:52;99812.13;;;14.11;100.00
17060;BME280;8646;49.716;9.266;2022-09-09T04:34:56;99799.78;;;14.20;100.00
17060;BME280;8646;49.716;9.266;2022-09-09T04:37:59;99807.19;;;14.18;100.00
17060;BME280;8646;49.716;9.266;2022-09-09T04:41:05;99817.09;;;14.19;100.00
17060;BME280;8646;49.716;9.266;2022-09-09T04:44:09;99811.84;;;14.16;100.00
17060;BME280;8646;49.716;9.266;2022-09-09T04:47:12;99812.81;;;14.14;100.00
17060;BME280;8646;49.716;9.266;2022-09-09T04:50:18;99813.00;;;14.11;100.00
17060;BME280;8646;49.716;9.266;2022-09-09T04:53:21;99822.94;;;14.12;100.00
17060;BME280;8646;49.716;9.266;2022-09-09T04:56:24;99822.94;;;14.12;100.00
17060;BME280;8646;49.716;9.266;2022-09-09T04:59:28;99825.88;;;14.09;100.00
17060;BME280;8646;49.716;9.266;2022-09-09T05:02:31;99826.84;;;14.08;100.00
17060;BME280;8646;49.716;9.266;2022-09-09T05:05:36;99828.00;;;14.19;100.00
17060;BME280;8646;49.716;9.266;2022-09-09T05:08:41;99823.75;;;14.27;100.00
17060;BME280;8646;49.716;9.266;2022-09-09T05:11:44;99827.59;;;14.25;100.00
17060;BME280;8646;49.716;9.266;2022-09-09T05:14:47;99835.53;;;14.28;100.00
17060;BME280;8646;49.716;9.266;2022-09-09T05:17:50;99842.53;;;14.32;100.00
17060;BME280;8646;49.716;9.266;2022-09-09T05:21:00;99821.53;;;14.34;100.00
17060;BME280;8646;49.716;9.266;2022-09-09T05:24:03;99834.16;;;14.49;100.00
17060;BME280;8646;49.716;9.266;2022-09-09T05:27:06;99843.94;;;14.51;100.00
17060;BME280;8646;49.716;9.266;2022-09-09T05:30:09;99857.69;;;14.50;100.00
17060;BME280;8646;49.716;9.266;2022-09-09T05:33:12;99859.81;;;14.45;100.00
17060;BME280;8646;49.716;9.266;2022-09-09T05:36:18;99846.81;;;14.50;100.00
17060;BME280;8646;49.716;9.266;2022-09-09T05:39:21;99850.78;;;14.59;100.00
17060;BME280;8646;49.716;9.266;2022-09-09T05:42:24;99854.59;;;14.69;100.00
17060;BME280;8646;49.716;9.266;2022-09-09T05:45:27;99853.22;;;14.76;100.00
17060;BME280;8646;49.716;9.266;2022-09-09T05:48:32;99857.84;;;14.88;100.00
17060;BME280;8646;49.716;9.266;2022-09-09T05:51:37;99871.03;;;14.94;100.00
17060;BME280;8646;49.716;9.266;2022-09-09T05:54:40;99872.59;;;14.98;100.00
17060;BME280;8646;49.716;9.266;2022-09-09T05:57:48;99868.78;;;15.01;100.00
17060;BME280;8646;49.716;9.266;2022-09-09T06:00:51;99873.41;;;15.13;100.00
17060;BME280;8646;49.716;9.266;2022-09-09T06:03:54;99867.56;;;15.32;98.43
17060;BME280;8646;49.716;9.266;2022-09-09T06:06:58;99873.22;;;15.41;98.37
17060;BME280;8646;49.716;9.266;2022-09-09T06:10:02;99869.34;;;15.58;97.55
17060;BME280;8646;49.716;9.266;2022-09-09T06:13:04;99867.84;;;15.92;95.56
17060;BME280;8646;49.716;9.266;2022-09-09T06:16:08;99861.59;;;16.64;91.11
17060;BME280;8646;49.716;9.266;2022-09-09T06:19:13;99856.06;;;17.25;87.90
17060;BME280;8646;49.716;9.266;2022-09-09T06:22:17;99853.84;;;17.65;85.33
17060;BME280;8646;49.716;9.266;2022-09-09T06:25:20;99851.28;;;17.97;83.71
17060;BME280;8646;49.716;9.266;2022-09-09T06:28:23;99844.53;;;18.01;83.13
17060;BME280;8646;49.716;9.266;2022-09-09T06:31:28;99847.53;;;18.20;83.29
17060;BME280;8646;49.716;9.266;2022-09-09T06:34:53;99838.72;;;18.82;80.82
17060;BME280;8646;49.716;9.266;2022-09-09T06:37:57;99841.97;;;19.39;78.86
17060;BME280;8646;49.716;9.266;2022-09-09T06:41:00;99819.16;;;19.80;76.92
17060;BME280;8646;49.716;9.266;2022-09-09T06:44:03;99837.00;;;19.86;77.22
17060;BME280;8646;49.716;9.266;2022-09-09T06:47:06;99835.97;;;19.46;78.87
17060;BME280;8646;49.716;9.266;2022-09-09T06:50:09;99834.50;;;19.83;76.44
17060;BME280;8646;49.716;9.266;2022-09-09T06:53:16;99826.44;;;20.42;73.78
17060;BME280;8646;49.716;9.266;2022-09-09T06:56:23;99813.63;;;20.81;71.76
17060;BME280;8646;49.716;9.266;2022-09-09T06:59:26;99807.81;;;20.84;72.66
17060;BME280;8646;49.716;9.266;2022-09-09T07:02:29;99812.84;;;20.60;74.48
17060;BME280;8646;49.716;9.266;2022-09-09T07:05:32;99827.31;;;20.22;76.26
17060;BME280;8646;49.716;9.266;2022-09-09T07:08:37;99832.78;;;19.82;77.22
17060;BME280;8646;49.716;9.266;2022-09-09T07:11:41;99836.09;;;19.44;78.24
17060;BME280;8646;49.716;9.266;2022-09-09T07:14:44;99847.72;;;19.16;78.82
17060;BME280;8646;49.716;9.266;2022-09-09T07:17:47;99847.78;;;19.04;79.35
17060;BME280;8646;49.716;9.266;2022-09-09T07:20:54;99828.41;;;19.06;79.70
17060;BME280;8646;49.716;9.266;2022-09-09T07:23:59;99843.88;;;19.07;79.71
17060;BME280;8646;49.716;9.266;2022-09-09T07:27:02;99844.94;;;18.95;79.60
17060;BME280;8646;49.716;9.266;2022-09-09T07:30:06;99845.25;;;18.81;79.21
17060;BME280;8646;49.716;9.266;2022-09-09T07:33:09;99856.97;;;18.72;79.61
17060;BME280;8646;49.716;9.266;2022-09-09T07:36:14;99850.34;;;18.74;79.46
17060;BME280;8646;49.716;9.266;2022-09-09T07:39:18;99847.69;;;18.84;79.55
17060;BME280;8646;49.716;9.266;2022-09-09T07:42:21;99853.28;;;18.93;79.14
17060;BME280;8646;49.716;9.266;2022-09-09T07:45:24;99853.09;;;19.06;78.67
17060;BME280;8646;49.716;9.266;2022-09-09T07:48:29;99851.50;;;19.35;77.76
17060;BME280;8646;49.716;9.266;2022-09-09T07:51:34;99852.25;;;19.79;77.06
17060;BME280;8646;49.716;9.266;2022-09-09T07:54:40;99850.22;;;20.32;75.29
17060;BME280;8646;49.716;9.266;2022-09-09T07:57:43;99847.63;;;20.80;73.38
17060;BME280;8646;49.716;9.266;2022-09-09T08:00:46;99840.31;;;21.19;71.94
17060;BME280;8646;49.716;9.266;2022-09-09T08:03:53;99845.69;;;21.40;70.25
17060;BME280;8646;49.716;9.266;2022-09-09T08:06:59;99843.22;;;21.56;69.95
17060;BME280;8646;49.716;9.266;2022-09-09T08:10:04;99850.28;;;21.49;68.29
17060;BME280;8646;49.716;9.266;2022-09-09T08:13:08;99838.13;;;21.32;68.38
17060;BME280;8646;49.716;9.266;2022-09-09T08:16:21;99858.44;;;21.22;68.71
17060;BME280;8646;49.716;9.266;2022-09-09T08:19:24;99860.53;;;21.09;69.33
17060;BME280;8646;49.716;9.266;2022-09-09T08:22:27;99860.69;;;20.98;69.76
17060;BME280;8646;49.716;9.266;2022-09-09T08:25:31;99858.34;;;20.93;68.97
17060;BME280;8646;49.716;9.266;2022-09-09T08:28:36;99861.59;;;21.08;69.15
17060;BME280;8646;49.716;9.266;2022-09-09T08:31:42;99862.75;;;21.34;68.67
17060;BME280;8646;49.716;9.266;2022-09-09T08:34:45;99855.94;;;21.57;68.27
17060;BME280;8646;49.716;9.266;2022-09-09T08:37:48;99857.06;;;21.74;67.24
17060;BME280;8646;49.716;9.266;2022-09-09T08:40:59;99852.28;;;22.05;66.79
17060;BME280;8646;49.716;9.266;2022-09-09T08:44:09;99833.91;;;22.23;65.42
17060;BME280;8646;49.716;9.266;2022-09-09T08:47:27;99844.84;;;22.42;64.62
17060;BME280;8646;49.716;9.266;2022-09-09T08:50:36;99857.41;;;22.55;64.28
17060;BME280;8646;49.716;9.266;2022-09-09T08:53:46;99854.66;;;22.55;64.05
17060;BME280;8646;49.716;9.266;2022-09-09T08:56:51;99849.13;;;22.55;64.09
17060;BME280;8646;49.716;9.266;2022-09-09T08:59:55;99850.88;;;22.56;64.24
17060;BME280;8646;49.716;9.266;2022-09-09T09:03:05;99853.22;;;22.51;63.88
17060;BME280;8646;49.716;9.266;2022-09-09T09:06:22;99856.00;;;22.51;63.91
17060;BME280;8646;49.716;9.266;2022-09-09T09:09:33;99850.88;;;22.56;63.67
17060;BME280;8646;49.716;9.266;2022-09-09T09:12:43;99834.81;;;22.78;62.63
17060;BME280;8646;49.716;9.266;2022-09-09T09:15:53;99844.47;;;23.10;61.06
17060;BME280;8646;49.716;9.266;2022-09-09T09:18:58;99841.25;;;23.14;60.20
17060;BME280;8646;49.716;9.266;2022-09-09T09:22:05;99837.28;;;22.99;60.38
17060;BME280;8646;49.716;9.266;2022-09-09T09:25:13;99855.06;;;22.87;60.96
17060;BME280;8646;49.716;9.266;2022-09-09T09:28:23;99848.16;;;22.83;61.11
17060;BME280;8646;49.716;9.266;2022-09-09T09:31:27;99853.56;;;22.75;61.00
17060;BME280;8646;49.716;9.266;2022-09-09T09:34:30;99856.59;;;22.72;61.40
17060;BME280;8646;49.716;9.266;2022-09-09T09:37:34;99860.75;;;22.58;61.23
17060;BME280;8646;49.716;9.266;2022-09-09T09:40:48;99860.03;;;22.19;62.45
17060;BME280;8646;49.716;9.266;2022-09-09T09:43:54;99864.19;;;21.77;64.61
17060;BME280;8646;49.716;9.266;2022-09-09T09:47:06;99880.44;;;21.51;65.77
17060;BME280;8646;49.716;9.266;2022-09-09T09:50:17;99876.97;;;21.29;66.84
17060;BME280;8646;49.716;9.266;2022-09-09T09:53:23;99885.34;;;21.18;67.58
17060;BME280;8646;49.716;9.266;2022-09-09T09:56:27;99878.09;;;21.17;68.11
17060;BME280;8646;49.716;9.266;2022-09-09T09:59:36;99881.47;;;21.21;68.29
17060;BME280;8646;49.716;9.266;2022-09-09T10:02:42;99874.34;;;21.28;68.53
17060;BME280;8646;49.716;9.266;2022-09-09T10:05:46;99866.66;;;21.60;68.29
17060;BME280;8646;49.716;9.266;2022-09-09T10:08:49;99870.69;;;21.76;68.68
17060;BME280;8646;49.716;9.266;2022-09-09T10:11:59;99871.44;;;21.68;68.27
17060;BME280;8646;49.716;9.266;2022-09-09T10:15:21;99867.69;;;21.59;67.42
17060;BME280;8646;49.716;9.266;2022-09-09T10:18:46;99872.03;;;21.72;66.38
17060;BME280;8646;49.716;9.266;2022-09-09T10:21:58;99870.69;;;22.04;65.64
17060;BME280;8646;49.716;9.266;2022-09-09T10:25:14;99865.66;;;22.27;63.92
17060;BME280;8646;49.716;9.266;2022-09-09T10:28:33;99865.47;;;22.38;63.63
17060;BME280;8646;49.716;9.266;2022-09-09T10:31:49;99857.91;;;22.40;62.86
17060;BME280;8646;49.716;9.266;2022-09-09T10:35:03;99854.44;;;22.38;62.45
17060;BME280;8646;49.716;9.266;2022-09-09T10:38:16;99843.72;;;22.35;62.57
17060;BME280;8646;49.716;9.266;2022-09-09T10:41:32;99829.69;;;22.56;61.64
17060;BME280;8646;49.716;9.266;2022-09-09T10:44:50;99829.63;;;22.75;61.21
17060;BME280;8646;49.716;9.266;2022-09-09T10:48:15;99816.53;;;22.95;60.58
17060;BME280;8646;49.716;9.266;2022-09-09T10:51:23;99823.66;;;23.33;59.47
17060;BME280;8646;49.716;9.266;2022-09-09T10:54:36;99824.50;;;23.51;59.25
17060;BME280;8646;49.716;9.266;2022-09-09T10:57:50;99815.44;;;23.41;56.71
17060;BME280;8646;49.716;9.266;2022-09-09T11:00:56;99820.41;;;23.38;56.96
17060;BME280;8646;49.716;9.266;2022-09-09T11:04:09;99827.22;;;23.26;57.59
17060;BME280;8646;49.716;9.266;2022-09-09T11:07:24;99830.50;;;23.11;58.30
17060;BME280;8646;49.716;9.266;2022-09-09T11:10:35;99825.38;;;22.99;58.79
17060;BME280;8646;49.716;9.266;2022-09-09T11:13:45;99817.97;;;22.99;59.27
17060;BME280;8646;49.716;9.266;2022-09-09T11:16:56;99802.38;;;23.26;58.26
17060;BME280;8646;49.716;9.266;2022-09-09T11:20:05;99800.66;;;23.68;57.08
17060;BME280;8646;49.716;9.266;2022-09-09T11:23:11;99791.44;;;23.85;56.84
17060;BME280;8646;49.716;9.266;2022-09-09T11:26:23;99780.88;;;24.07;54.52
17060;BME280;8646;49.716;9.266;2022-09-09T11:33:26;99791.44;;;24.37;54.54
17060;BME280;8646;49.716;9.266;2022-09-09T11:36:59;99782.84;;;24.48;54.77
17060;BME280;8646;49.716;9.266;2022-09-09T11:40:14;99780.75;;;24.50;54.16
17060;BME280;8646;49.716;9.266;2022-09-09T11:43:23;99784.72;;;24.40;53.88
17060;BME280;8646;49.716;9.266;2022-09-09T11:46:33;99784.50;;;24.41;54.03
17060;BME280;8646;49.716;9.266;2022-09-09T11:49:41;99775.56;;;24.47;53.86
17060;BME280;8646;49.716;9.266;2022-09-09T11:52:47;99783.44;;;24.76;53.34
17060;BME280;8646;49.716;9.266;2022-09-09T11:56:06;99793.38;;;24.95;52.22
17060;BME280;8646;49.716;9.266;2022-09-09T11:59:20;99786.47;;;25.15;51.80
17060;BME280;8646;49.716;9.266;2022-09-09T12:02:24;99785.94;;;24.95;51.88
17060;BME280;8646;49.716;9.266;2022-09-09T12:05:36;99789.13;;;24.75;52.40
17060;BME280;8646;49.716;9.266;2022-09-09T12:08:45;99782.34;;;24.61;51.48
17060;BME280;8646;49.716;9.266;2022-09-09T12:11:49;99770.03;;;24.47;51.33
17060;BME280;8646;49.716;9.266;2022-09-09T12:15:03;99791.09;;;24.40;51.10
17060;BME280;8646;49.716;9.266;2022-09-09T12:18:22;99783.31;;;24.10;50.71
17060;BME280;8646;49.716;9.266;2022-09-09T12:21:34;99779.44;;;23.94;50.67
17060;BME280;8646;49.716;9.266;2022-09-09T12:24:49;99780.50;;;24.02;50.82
17060;BME280;8646;49.716;9.266;2022-09-09T12:28:04;99782.22;;;24.03;50.87
17060;BME280;8646;49.716;9.266;2022-09-09T12:31:10;99776.50;;;23.96;50.84
17060;BME280;8646;49.716;9.266;2022-09-09T12:34:30;99775.13;;;24.26;49.66
17060;BME280;8646;49.716;9.266;2022-09-09T12:37:36;99764.19;;;24.58;48.12
17060;BME280;8646;49.716;9.266;2022-09-09T12:40:41;99764.13;;;24.92;47.34
17060;BME280;8646;49.716;9.266;2022-09-09T12:43:45;99761.06;;;25.20;46.75
17060;BME280;8646;49.716;9.266;2022-09-09T12:46:49;99764.69;;;25.28;46.61
17060;BME280;8646;49.716;9.266;2022-09-09T12:49:52;99749.09;;;25.43;45.76
17060;BME280;8646;49.716;9.266;2022-09-09T12:53:01;99749.09;;;25.52;44.73
17060;BME280;8646;49.716;9.266;2022-09-09T12:56:09;99748.56;;;25.72;44.53
17060;BME280;8646;49.716;9.266;2022-09-09T12:59:23;99740.41;;;25.71;44.19
17060;BME280;8646;49.716;9.266;2022-09-09T13:02:27;99744.91;;;25.56;43.93
17060;BME280;8646;49.716;9.266;2022-09-09T13:05:35;99738.03;;;25.35;43.66
17060;BME280;8646;49.716;9.266;2022-09-09T13:08:38;99749.09;;;25.11;43.76
17060;BME280;8646;49.716;9.266;2022-09-09T13:11:49;99750.44;;;24.91;44.56
17060;BME280;8646;49.716;9.266;2022-09-09T13:14:54;99747.47;;;24.76;44.71
17060;BME280;8646;49.716;9.266;2022-09-09T13:18:00;99737.22;;;24.60;45.04
17060;BME280;8646;49.716;9.266;2022-09-09T13:21:06;99715.75;;;24.46;45.33
17060;BME280;8646;49.716;9.266;2022-09-09T13:24:25;99745.28;;;24.38;45.84
17060;BME280;8646;49.716;9.266;2022-09-09T13:27:32;99748.06;;;24.12;45.93
17060;BME280;8646;49.716;9.266;2022-09-09T13:30:37;99760.91;;;23.87;45.79
17060;BME280;8646;49.716;9.266;2022-09-09T13:33:42;99784.84;;;23.52;46.67
17060;BME280;8646;49.716;9.266;2022-09-09T13:36:46;99805.34;;;23.14;48.89
17060;BME280;8646;49.716;9.266;2022-09-09T13:39:51;99806.06;;;22.71;51.59
17060;BME280;8646;49.716;9.266;2022-09-09T13:42:57;99808.59;;;21.54;55.66
17060;BME280;8646;49.716;9.266;2022-09-09T13:46:02;99823.03;;;20.88;58.91
17060;BME280;8646;49.716;9.266;2022-09-09T13:49:19;99827.72;;;21.17;59.08
17060;BME280;8646;49.716;9.266;2022-09-09T13:52:23;99813.94;;;21.46;57.25
17060;BME280;8646;49.716;9.266;2022-09-09T13:55:28;99806.50;;;21.65;56.76
17060;BME280;8646;49.716;9.266;2022-09-09T13:58:33;99809.97;;;21.77;56.36
17060;BME280;8646;49.716;9.266;2022-09-09T14:01:36;99816.34;;;21.78;56.63
17060;BME280;8646;49.716;9.266;2022-09-09T14:04:39;99818.53;;;21.74;56.56
17060;BME280;8646;49.716;9.266;2022-09-09T14:07:44;99819.59;;;21.63;58.00
17060;BME280;8646;49.716;9.266;2022-09-09T14:10:53;99831.75;;;21.51;59.36
17060;BME280;8646;49.716;9.266;2022-09-09T14:13:58;99821.06;;;21.39;60.67
17060;BME280;8646;49.716;9.266;2022-09-09T14:17:02;99832.94;;;21.39;60.72
17060;BME280;8646;49.716;9.266;2022-09-09T14:20:10;99833.38;;;21.35;62.56
17060;BME280;8646;49.716;9.266;2022-09-09T14:23:13;99840.47;;;21.18;62.79
17060;BME280;8646;49.716;9.266;2022-09-09T14:26:17;99846.63;;;21.01;63.83
17060;BME280;8646;49.716;9.266;2022-09-09T14:29:21;99851.81;;;20.84;64.25
17060;BME280;8646;49.716;9.266;2022-09-09T14:32:26;99856.28;;;20.76;65.28
17060;BME280;8646;49.716;9.266;2022-09-09T14:35:30;99857.13;;;20.57;64.82
17060;BME280;8646;49.716;9.266;2022-09-09T14:38:36;99853.22;;;20.50;64.96
17060;BME280;8646;49.716;9.266;2022-09-09T14:41:40;99848.72;;;20.49;65.05
17060;BME280;8646;49.716;9.266;2022-09-09T14:44:45;99849.47;;;20.51;64.90
17060;BME280;8646;49.716;9.266;2022-09-09T14:47:49;99851.94;;;20.64;65.18
17060;BME280;8646;49.716;9.266;2022-09-09T14:50:51;99842.38;;;20.58;65.81
17060;BME280;8646;49.716;9.266;2022-09-09T14:53:56;99843.81;;;20.62;66.48
17060;BME280;8646;49.716;9.266;2022-09-09T14:56:59;99835.59;;;20.72;66.56
17060;BME280;8646;49.716;9.266;2022-09-09T15:00:04;99819.59;;;21.06;64.77
17060;BME280;8646;49.716;9.266;2022-09-09T15:03:07;99807.97;;;21.60;63.59
17060;BME280;8646;49.716;9.266;2022-09-09T15:06:12;99795.53;;;22.12;62.64
17060;BME280;8646;49.716;9.266;2022-09-09T15:09:15;99784.16;;;22.52;61.37
17060;BME280;8646;49.716;9.266;2022-09-09T15:12:18;99781.25;;;22.71;59.83
17060;BME280;8646;49.716;9.266;2022-09-09T15:15:23;99779.38;;;22.72;59.23
17060;BME280;8646;49.716;9.266;2022-09-09T15:18:26;99785.50;;;22.66;58.34
17060;BME280;8646;49.716;9.266;2022-09-09T15:21:30;99778.94;;;22.49;58.19
17060;BME280;8646;49.716;9.266;2022-09-09T15:24:33;99779.63;;;22.33;57.83
17060;BME280;8646;49.716;9.266;2022-09-09T15:27:36;99774.72;;;22.27;57.59
17060;BME280;8646;49.716;9.266;2022-09-09T15:30:42;99772.84;;;22.28;57.94
17060;BME280;8646;49.716;9.266;2022-09-09T15:33:47;99749.81;;;22.19;58.49
17060;BME280;8646;49.716;9.266;2022-09-09T15:36:50;99771.06;;;22.36;57.73
17060;BME280;8646;49.716;9.266;2022-09-09T15:39:53;99765.72;;;22.25;56.92
17060;BME280;8646;49.716;9.266;2022-09-09T15:42:56;99767.41;;;22.08;57.17
17060;BME280;8646;49.716;9.266;2022-09-09T15:46:13;99774.13;;;21.96;57.51
17060;BME280;8646;49.716;9.266;2022-09-09T15:49:26;99770.25;;;21.80;57.47
17060;BME280;8646;49.716;9.266;2022-09-09T15:52:29;99777.97;;;21.66;58.83
17060;BME280;8646;49.716;9.266;2022-09-09T15:55:31;99786.97;;;21.49;59.98
17060;BME280;8646;49.716;9.266;2022-09-09T15:58:35;99792.41;;;21.22;63.97
17060;BME280;8646;49.716;9.266;2022-09-09T16:01:39;99781.91;;;20.77;66.22
17060;BME280;8646;49.716;9.266;2022-09-09T16:04:43;99811.13;;;20.69;67.48
17060;BME280;8646;49.716;9.266;2022-09-09T16:07:46;99815.56;;;20.41;69.28
17060;BME280;8646;49.716;9.266;2022-09-09T16:10:49;99815.59;;;20.10;70.43
17060;BME280;8646;49.716;9.266;2022-09-09T16:13:53;99830.22;;;19.90;71.62
17060;BME280;8646;49.716;9.266;2022-09-09T16:16:57;99829.81;;;19.74;72.33
17060;BME280;8646;49.716;9.266;2022-09-09T16:20:01;99832.84;;;19.71;72.50
17060;BME280;8646;49.716;9.266;2022-09-09T16:23:04;99836.31;;;19.73;72.88
17060;BME280;8646;49.716;9.266;2022-09-09T16:26:10;99843.09;;;19.69;73.87
17060;BME280;8646;49.716;9.266;2022-09-09T16:29:14;99850.13;;;19.62;74.45
17060;BME280;8646;49.716;9.266;2022-09-09T16:32:18;99857.88;;;19.57;74.47
17060;BME280;8646;49.716;9.266;2022-09-09T16:35:21;99857.88;;;19.57;72.93
17060;BME280;8646;49.716;9.266;2022-09-09T16:38:24;99856.88;;;19.58;72.07
17060;BME280;8646;49.716;9.266;2022-09-09T16:41:28;99861.81;;;19.64;71.25
17060;BME280;8646;49.716;9.266;2022-09-09T16:44:31;99870.81;;;19.66;70.85
17060;BME280;8646;49.716;9.266;2022-09-09T16:47:35;99880.03;;;19.65;71.00
17060;BME280;8646;49.716;9.266;2022-09-09T16:50:38;99881.53;;;19.69;71.47